Time;durP1;ratioP1;P1;durP2;ratioP2;P2;SDS_P1;SDS_P2;PMS_P1;PMS_P2;Temp;Humidity;BMP_temperature;BMP_pressure;BME280_temperature;BME280_humidity;BME280_pressure;Samples;Min_cycle;Max_cycle;Signal;HPM_P1;HPM_P2
2023/11/09 00:01:56;;;;;;;2.22;0.70;;;;;;;23.44;36.22;100123.00;4197276;28;20049;-59
2023/11/09 00:03:58;;;;;;;1.58;0.65;;;;;;;23.44;36.20;100123.00;4197428;28;20461;-59
2023/11/09 00:06:00;;;;;;;;;;;;;;;23.45;36.34;100119.31;4197456;28;20048;-60
2023/11/09 00:08:02;;;;;;;2.28;0.82;;;;;;;23.44;36.46;100106.88;4196786;28;19924;-58
2023/11/09 00:10:06;;;;;;;2.67;0.80;;;;;;;23.48;36.45;100114.66;4196781;28;20052;-59
2023/11/09 00:12:08;;;;;;;1.92;0.60;;;;;;;23.50;36.14;100102.75;4196840;28;20068;-59
2023/11/09 00:14:15;;;;;;;1.35;0.60;;;;;;;23.53;36.21;100106.97;4196937;28;20072;-59
2023/11/09 00:16:17;;;;;;;2.00;0.63;;;;;;;23.53;36.31;100109.66;4196916;28;20488;-59
2023/11/09 00:18:24;;;;;;;;;;;;;;;23.52;36.25;100106.09;4197392;28;20053;-60
2023/11/09 00:20:27;;;;;;;2.10;0.75;;;;;;;23.43;36.25;100088.25;4196799;28;20038;-58
2023/11/09 00:22:28;;;;;;;2.25;0.70;;;;;;;23.52;35.94;100097.22;4196864;28;20049;-59
2023/11/09 00:24:30;;;;;;;1.63;0.68;;;;;;;23.52;36.17;100086.50;4196633;28;20045;-62
2023/11/09 00:26:32;;;;;;;2.72;0.70;;;;;;;23.51;36.23;100095.53;4196883;28;20090;-59
2023/11/09 00:28:33;;;;;;;2.17;0.77;;;;;;;23.49;36.69;100079.59;4196422;28;20042;-59
2023/11/09 00:30:35;;;;;;;;;;;;;;;23.54;36.43;100093.38;4195894;28;20511;-59
2023/11/09 00:32:37;;;;;;;1.90;0.80;;;;;;;23.51;36.36;100072.22;4196586;28;19921;-58
2023/11/09 00:34:39;;;;;;;2.17;0.63;;;;;;;23.58;36.19;100078.66;4195602;28;20044;-59
2023/11/09 00:36:40;;;;;;;;;;;;;;;23.58;36.61;100081.31;4197039;28;20052;-59
2023/11/09 00:38:46;;;;;;;1.95;0.70;;;;;;;23.53;36.65;100074.75;4196517;28;19924;-59
2023/11/09 00:40:47;;;;;;;2.25;0.63;;;;;;;23.56;36.23;100072.63;4196681;28;20056;-59
2023/11/09 00:42:49;;;;;;;;;;;;;;;23.57;36.62;100068.06;4197067;28;20076;-58
2023/11/09 00:44:51;;;;;;;1.20;0.50;;;;;;;23.51;36.35;100063.31;4195466;28;19928;-59
2023/11/09 00:46:52;;;;;;;1.73;0.70;;;;;;;23.53;36.64;100061.34;4196402;28;20059;-58
2023/11/09 00:48:54;;;;;;;1.75;0.60;;;;;;;23.50;36.43;100064.31;4196590;28;20048;-59
2023/11/09 00:50:57;;;;;;;;;;;;;;;23.54;36.29;100060.34;4196586;28;20056;-59
2023/11/09 00:52:59;;;;;;;2.65;0.60;;;;;;;23.56;36.26;100063.69;4196120;28;19927;-59
2023/11/09 00:55:00;;;;;;;;;;;;;;;23.58;36.62;100059.84;4197048;28;20072;-60
2023/11/09 00:57:02;;;;;;;1.73;0.55;;;;;;;23.58;36.46;100054.47;4196722;28;20035;-59
2023/11/09 00:59:04;;;;;;;;;;;;;;;23.61;36.33;100048.81;4196914;28;20053;-59
2023/11/09 01:01:05;;;;;;;1.55;0.40;;;;;;;23.60;36.66;100047.13;4196513;28;19967;-59
2023/11/09 01:03:07;;;;;;;;;;;;;;;23.61;36.24;100048.00;4197114;28;20132;-59
2023/11/09 01:05:09;;;;;;;2.97;0.60;;;;;;;23.56;36.67;100036.84;4196684;28;19932;-58
2023/11/09 01:07:12;;;;;;;3.10;0.75;;;;;;;23.58;36.40;100045.59;4196412;28;20049;-59
2023/11/09 01:09:17;;;;;;;1.75;0.50;;;;;;;23.58;36.61;100042.91;4196106;28;20411;-59
2023/11/09 01:11:23;;;;;;;1.95;0.50;;;;;;;23.59;36.75;100044.63;4196386;28;20040;-59
2023/11/09 01:13:24;;;;;;;1.20;0.40;;;;;;;23.61;36.87;100042.63;4196361;28;20495;-59
2023/11/09 01:15:26;;;;;;;0.65;0.40;;;;;;;23.62;36.42;100046.97;4196519;28;20465;-59
2023/11/09 01:17:28;;;;;;;1.50;0.55;;;;;;;23.65;36.32;100046.66;4196444;28;20044;-59
2023/11/09 01:19:30;;;;;;;;;;;;;;;23.65;36.61;100040.47;4196712;28;20068;-59
2023/11/09 01:21:34;;;;;;;2.25;0.50;;;;;;;23.64;36.48;100041.47;4196456;28;19944;-58
2023/11/09 01:23:36;;;;;;;2.35;0.57;;;;;;;23.61;36.68;100048.00;4196049;28;20045;-59
2023/11/09 01:25:38;;;;;;;1.38;0.40;;;;;;;23.63;36.48;100055.88;4196253;28;20101;-59
2023/11/09 01:27:39;;;;;;;;;;;;;;;23.60;36.62;100043.63;4196547;28;20098;-59
2023/11/09 01:29:41;;;;;;;1.15;0.47;;;;;;;23.59;36.75;100039.25;4196168;28;19927;-59
2023/11/09 01:31:43;;;;;;;;;;;;;;;23.60;36.75;100040.94;4196730;28;20048;-59
2023/11/09 01:33:44;;;;;;;1.15;0.50;;;;;;;23.58;36.95;100041.06;4195987;28;19960;-58
2023/11/09 01:35:46;;;;;;;0.80;0.40;;;;;;;23.62;36.45;100033.53;4195142;28;20048;-58
2023/11/09 01:37:48;;;;;;;1.60;0.50;;;;;;;23.63;36.91;100029.88;4195823;28;20496;-59
2023/11/09 01:39:49;;;;;;;1.13;0.40;;;;;;;23.57;36.84;100009.03;4196108;28;20094;-59
2023/11/09 01:41:51;;;;;;;1.33;0.40;;;;;;;23.68;36.60;100021.34;4196342;28;20044;-58
2023/11/09 01:43:57;;;;;;;0.52;0.32;;;;;;;23.69;36.83;100021.19;4196221;28;20055;-59
2023/11/09 01:46:00;;;;;;;0.70;0.30;;;;;;;23.67;36.79;100020.53;4196113;28;20102;-58
2023/11/09 01:48:02;;;;;;;0.93;0.35;;;;;;;23.70;36.69;100022.88;4196225;28;20075;-59
2023/11/09 01:50:05;;;;;;;0.98;0.40;;;;;;;23.70;36.41;100033.59;4195743;28;20052;-59
2023/11/09 01:52:07;;;;;;;1.15;0.40;;;;;;;23.69;36.32;100020.34;4195722;28;20150;-59
2023/11/09 01:54:10;;;;;;;0.98;0.30;;;;;;;23.69;36.48;100014.97;4194985;28;20055;-58
2023/11/09 01:56:14;;;;;;;1.33;0.40;;;;;;;23.70;36.40;100012.13;4196178;28;20063;-58
2023/11/09 01:58:16;;;;;;;1.70;0.47;;;;;;;23.70;36.89;100019.34;4195989;28;20049;-59
2023/11/09 02:00:19;;;;;;;1.23;0.38;;;;;;;23.75;36.63;100014.34;4196086;28;20379;-59
2023/11/09 02:02:22;;;;;;;1.20;0.40;;;;;;;23.75;36.66;100009.81;4195973;28;20068;-59
2023/11/09 02:04:24;;;;;;;1.27;0.40;;;;;;;23.71;36.56;100005.78;4196744;28;20123;-59
2023/11/09 02:06:26;;;;;;;1.23;0.40;;;;;;;23.76;36.49;100011.50;4198622;28;20056;-59
2023/11/09 02:08:29;;;;;;;1.23;0.28;;;;;;;23.75;36.67;100006.28;4198605;28;20072;-59
2023/11/09 02:10:34;;;;;;;1.13;0.40;;;;;;;23.77;36.48;100017.72;4198762;28;20098;-59
2023/11/09 02:12:37;;;;;;;0.98;0.30;;;;;;;23.75;36.42;100012.50;4198937;28;20048;-59
2023/11/09 02:14:38;;;;;;;0.77;0.38;;;;;;;23.75;36.76;100014.34;4198777;28;20068;-59
2023/11/09 02:16:40;;;;;;;1.77;0.30;;;;;;;23.74;36.59;100012.66;4198673;28;20053;-58
2023/11/09 02:18:42;;;;;;;1.20;0.38;;;;;;;23.73;36.89;100005.59;4199070;28;20048;-59
2023/11/09 02:20:45;;;;;;;;;;;;;;;23.77;36.64;100012.34;4198777;28;20055;-59
2023/11/09 02:22:48;;;;;;;0.55;0.30;;;;;;;23.76;36.56;100008.81;4198801;28;19995;-59
2023/11/09 02:24:51;;;;;;;0.40;0.20;;;;;;;23.76;36.74;99998.06;4214059;28;20044;-59
2023/11/09 02:26:55;;;;;;;0.38;0.22;;;;;;;23.82;36.42;100011.88;4198708;28;20131;-59
2023/11/09 02:28:56;;;;;;;1.00;0.22;;;;;;;23.81;36.40;100019.09;4198536;28;20400;-58
2023/11/09 02:30:58;;;;;;;0.68;0.30;;;;;;;23.82;36.47;100026.16;4198802;28;20045;-58
2023/11/09 02:33:02;;;;;;;1.23;0.40;;;;;;;23.83;36.28;100033.19;4198468;28;20059;-59
2023/11/09 02:35:07;;;;;;;0.60;0.28;;;;;;;23.82;36.74;100036.06;4198257;28;20064;-59
2023/11/09 02:37:10;;;;;;;0.50;0.30;;;;;;;23.80;36.67;100021.94;4198639;28;20423;-59
2023/11/09 02:39:12;;;;;;;1.63;0.40;;;;;;;23.82;36.90;100011.88;4198475;28;20074;-59
2023/11/09 02:41:14;;;;;;;1.35;0.40;;;;;;;23.84;36.87;100007.19;4198394;28;20056;-58
2023/11/09 02:43:15;;;;;;;0.75;0.32;;;;;;;23.85;36.45;100004.38;4197338;28;20438;-59
2023/11/09 02:45:17;;;;;;;;;;;;;;;23.86;36.41;100008.69;4198571;28;20052;-58
2023/11/09 02:47:19;;;;;;;1.45;0.50;;;;;;;23.87;36.40;99998.81;4197106;28;19927;-59
2023/11/09 02:49:20;;;;;;;;;;;;;;;23.89;36.65;100004.84;4198301;28;20048;-58
2023/11/09 02:51:22;;;;;;;1.90;0.57;;;;;;;23.84;36.73;100007.19;4198079;28;20307;-59
2023/11/09 02:53:23;;;;;;;2.13;0.40;;;;;;;23.89;36.55;100012.91;4196970;28;20124;-59
2023/11/09 02:55:25;;;;;;;1.98;0.60;;;;;;;23.89;36.33;100016.47;4198174;28;20132;-59
2023/11/09 02:57:29;;;;;;;1.88;0.45;;;;;;;23.88;36.53;100005.88;4198066;28;20093;-58
2023/11/09 02:59:31;;;;;;;1.45;0.47;;;;;;;23.86;36.56;100008.69;4198168;28;20045;-59
2023/11/09 03:01:35;;;;;;;;;;;;;;;23.88;36.76;100016.63;4198572;28;20075;-58
2023/11/09 03:03:36;;;;;;;1.98;0.60;;;;;;;23.89;36.59;100026.34;4197609;28;19960;-58
2023/11/09 03:05:38;;;;;;;;;;;;;;;23.90;36.73;100026.19;4198410;28;20048;-58
2023/11/09 03:07:40;;;;;;;2.97;0.60;;;;;;;23.85;36.52;100015.09;4198115;28;19927;-58
2023/11/09 03:09:44;;;;;;;;;;;;;;;23.93;36.68;100025.91;4198412;28;20075;-58
2023/11/09 03:11:46;;;;;;;2.67;0.75;;;;;;;23.92;36.45;100028.72;4198060;28;20111;-59
2023/11/09 03:13:47;;;;;;;2.05;0.65;;;;;;;23.91;36.64;100032.41;4197826;28;20139;-57
2023/11/09 03:15:49;;;;;;;;;;;;;;;23.95;36.42;100041.00;4197153;28;20048;-57
2023/11/09 03:17:51;;;;;;;3.05;0.73;;;;;;;23.91;36.19;100029.72;4197420;28;20349;-59
2023/11/09 03:19:53;;;;;;;;;;;;;;;23.91;36.54;100035.94;4198247;28;20130;-58
2023/11/09 03:21:54;;;;;;;3.63;0.82;;;;;;;23.87;36.51;100028.38;4197741;28;19948;-59
2023/11/09 03:23:56;;;;;;;2.72;0.63;;;;;;;23.90;36.44;100022.66;4197608;28;20406;-58
2023/11/09 03:25:57;;;;;;;3.38;0.68;;;;;;;23.93;36.67;100025.91;4197710;28;20131;-59
2023/11/09 03:27:59;;;;;;;3.78;0.75;;;;;;;23.93;36.35;100023.22;4197785;28;20419;-59
2023/11/09 03:30:02;;;;;;;2.90;0.60;;;;;;;23.96;36.47;100027.41;4197716;28;20066;-59
2023/11/09 03:32:06;;;;;;;3.90;0.70;;;;;;;24.00;36.28;100046.75;4197711;28;20072;-58
2023/11/09 03:34:08;;;;;;;4.22;0.80;;;;;;;24.00;36.25;100031.50;4197281;28;20047;-58
2023/11/09 03:36:15;;;;;;;;;;;;;;;24.00;36.28;100027.94;4197886;28;20048;-59
2023/11/09 03:38:17;;;;;;;3.25;0.85;;;;;;;23.97;36.16;100045.22;4197378;28;19921;-58
2023/11/09 03:40:19;;;;;;;2.70;0.68;;;;;;;23.96;36.37;100040.03;4197397;28;20115;-59
2023/11/09 03:42:21;;;;;;;4.65;1.00;;;;;;;23.97;36.17;100047.91;4197541;28;20059;-59
2023/11/09 03:44:22;;;;;;;;;;;;;;;23.96;36.56;100040.03;4197809;28;20051;-59
2023/11/09 03:46:24;;;;;;;2.83;0.88;;;;;;;23.91;36.58;100035.94;4197387;28;19924;-58
2023/11/09 03:48:25;;;;;;;3.42;0.98;;;;;;;23.98;36.49;100040.72;4196905;28;20056;-59
2023/11/09 03:50:27;;;;;;;;;;;;;;;24.00;36.23;100034.19;4197370;28;20488;-59
2023/11/09 03:52:29;;;;;;;4.07;0.90;;;;;;;23.99;36.27;100023.59;4197271;28;19943;-59
2023/11/09 03:54:30;;;;;;;;;;;;;;;24.01;36.21;100022.44;4197604;28;20078;-59
2023/11/09 03:56:32;;;;;;;4.38;1.10;;;;;;;24.00;35.93;100025.25;4197360;28;19931;-59
2023/11/09 03:58:34;;;;;;;;;;;;;;;24.00;36.35;100020.75;4197373;28;20044;-59
2023/11/09 04:00:36;;;;;;;4.25;1.10;;;;;;;23.96;36.54;100015.84;4197124;28;19927;-59
2023/11/09 04:02:42;;;;;;;4.10;1.15;;;;;;;24.01;36.41;100024.25;4196590;28;20143;-59
2023/11/09 04:04:45;;;;;;;4.20;1.17;;;;;;;23.99;36.23;100020.91;4197001;28;20048;-59
2023/11/09 04:06:47;;;;;;;3.72;1.10;;;;;;;23.96;36.34;100011.31;4197003;28;20426;-59
2023/11/09 04:08:49;;;;;;;3.58;1.30;;;;;;;24.01;36.31;100018.88;4196881;28;20044;-59
2023/11/09 04:10:51;;;;;;;4.80;1.40;;;;;;;24.01;36.16;100029.63;4197043;28;20139;-59
2023/11/09 04:12:52;;;;;;;3.33;1.20;;;;;;;24.04;36.37;100032.84;4196994;28;20394;-59
2023/11/09 04:14:57;;;;;;;5.63;1.42;;;;;;;24.04;36.37;100027.47;4196745;28;20072;-59
2023/11/09 04:16:59;;;;;;;5.43;1.38;;;;;;;24.07;36.39;100043.28;4196478;28;20173;-58
2023/11/09 04:19:00;;;;;;;5.13;1.52;;;;;;;24.07;36.25;100037.91;4197022;28;20044;-60
2023/11/09 04:21:03;;;;;;;;;;;;;;;24.06;36.19;100032.72;4197551;28;20514;-58
2023/11/09 04:23:05;;;;;;;4.00;1.27;;;;;;;24.01;35.92;100032.31;4196889;28;19924;-59
2023/11/09 04:25:09;;;;;;;4.47;1.40;;;;;;;24.03;35.97;100041.91;4196630;28;20048;-58
2023/11/09 04:27:12;;;;;;;4.60;1.50;;;;;;;24.04;36.21;100046.28;4196243;28;20044;-58
2023/11/09 04:29:13;;;;;;;3.75;1.33;;;;;;;24.04;36.26;100048.13;4196703;28;20499;-58
2023/11/09 04:31:15;;;;;;;5.07;1.40;;;;;;;24.05;35.84;100053.34;4196447;28;20052;-58
2023/11/09 04:33:17;;;;;;;;;;;;;;;24.08;36.01;100052.19;4197288;28;20135;-58
2023/11/09 04:35:20;;;;;;;;;;;;;;;24.07;35.96;100055.84;4197221;28;20398;-58
2023/11/09 04:37:21;;;;;;;3.88;1.25;;;;;;;23.98;36.21;100049.59;4196750;28;19920;-58
2023/11/09 04:39:31;;;;;;;5.28;1.40;;;;;;;24.11;36.17;100067.13;4196600;28;20052;-58
2023/11/09 04:41:32;;;;;;;5.25;1.45;;;;;;;24.08;36.24;100070.97;4196488;28;20044;-59
2023/11/09 04:43:34;;;;;;;4.97;1.40;;;;;;;24.10;35.86;100071.66;4212084;28;20071;-58
2023/11/09 04:45:37;;;;;;;4.35;1.65;;;;;;;24.08;36.27;100065.59;4196115;28;20036;-58
2023/11/09 04:47:42;;;;;;;4.07;1.20;;;;;;;24.04;35.88;100057.03;4196683;28;20072;-58
2023/11/09 04:49:47;;;;;;;4.90;1.45;;;;;;;24.01;36.14;100057.34;4196287;28;20076;-58
2023/11/09 04:51:51;;;;;;;3.63;1.15;;;;;;;24.06;35.95;100067.63;4196785;28;20503;-59
2023/11/09 04:53:52;;;;;;;5.35;1.30;;;;;;;24.10;36.04;100069.00;4196494;28;20075;-58
2023/11/09 04:55:57;;;;;;;4.22;1.40;;;;;;;24.13;35.87;100075.88;4196596;28;20048;-61
2023/11/09 05:07:27;;;;;;;5.43;1.50;;;;;;;24.12;36.04;100067.00;4196444;28;20048;-59
2023/11/09 05:09:29;;;;;;;4.80;1.20;;;;;;;24.11;36.07;100069.81;4196205;28;20045;-58
2023/11/09 05:11:31;;;;;;;5.28;1.45;;;;;;;24.09;35.92;100068.13;4196531;28;20098;-58
2023/11/09 05:13:32;;;;;;;5.30;1.30;;;;;;;24.11;35.93;100072.50;4196573;28;20102;-58
2023/11/09 05:15:34;;;;;;;3.42;1.10;;;;;;;24.12;35.91;100074.19;4196298;28;20044;-58
2023/11/09 05:17:36;;;;;;;5.47;1.20;;;;;;;24.14;35.72;100072.19;4196445;28;20124;-59
2023/11/09 05:19:40;;;;;;;4.43;1.20;;;;;;;24.13;35.84;100074.03;4196441;28;20543;-59
2023/11/09 05:21:42;;;;;;;4.30;1.35;;;;;;;24.15;35.79;100079.25;4196522;28;20456;-58
2023/11/09 05:23:45;;;;;;;3.90;1.52;;;;;;;24.15;35.70;100079.25;4196374;28;20073;-58
2023/11/09 05:25:47;;;;;;;3.83;1.20;;;;;;;24.16;35.89;100078.25;4196374;28;20052;-59
2023/11/09 05:27:49;;;;;;;5.28;1.58;;;;;;;24.14;35.78;100080.25;4196391;28;20099;-58
2023/11/09 05:29:52;;;;;;;5.47;1.50;;;;;;;24.12;35.93;100071.50;4195899;28;20123;-58
2023/11/09 05:31:54;;;;;;;5.95;1.73;;;;;;;24.09;35.89;100070.81;4196342;28;20250;-58
2023/11/09 05:33:56;;;;;;;3.70;1.30;;;;;;;24.10;35.85;100077.03;4196404;28;20052;-58
2023/11/09 05:36:00;;;;;;;3.97;1.17;;;;;;;24.06;36.15;100071.16;4196111;28;20135;-58
2023/11/09 05:38:03;;;;;;;4.50;1.30;;;;;;;24.12;35.94;100080.44;4195025;28;20119;-58
2023/11/09 05:40:07;;;;;;;4.43;1.30;;;;;;;24.14;35.99;100082.94;4199452;28;20212;-58
2023/11/09 05:42:11;;;;;;;5.40;1.45;;;;;;;24.17;35.86;100085.28;4199039;28;20059;-59
2023/11/09 05:44:12;;;;;;;9.07;1.60;;;;;;;24.16;35.73;100084.47;4198906;28;20045;-59
2023/11/09 05:46:14;;;;;;;5.07;1.58;;;;;;;24.17;35.38;100087.97;4199049;28;20131;-58
2023/11/09 05:48:16;;;;;;;5.13;1.15;;;;;;;24.17;35.74;100090.66;4199143;28;20048;-57
2023/11/09 05:50:18;;;;;;;4.13;1.17;;;;;;;24.16;35.58;100092.53;4198840;28;20056;-58
2023/11/09 05:52:20;;;;;;;3.75;1.10;;;;;;;24.13;35.51;100098.19;4198893;28;20318;-58
2023/11/09 05:54:22;;;;;;;;;;;;;;;24.13;35.80;100092.00;4199515;28;20049;-58
2023/11/09 05:56:24;;;;;;;5.82;1.65;;;;;;;24.10;36.00;100098.53;4199042;28;20353;-58
2023/11/09 05:58:26;;;;;;;6.25;1.60;;;;;;;24.12;35.66;100101.06;4198725;28;20474;-58
2023/11/09 06:00:28;;;;;;;;;;;;;;;24.14;35.55;100104.44;4199570;28;20040;-58
2023/11/09 06:02:29;;;;;;;4.55;1.20;;;;;;;24.14;35.57;100109.81;4199010;28;20002;-58
2023/11/09 06:04:31;;;;;;;;;;;;;;;24.15;35.75;100109.66;4199442;28;20478;-59
2023/11/09 06:06:33;;;;;;;5.80;1.73;;;;;;;24.16;35.83;100111.34;4199155;28;20387;-59
2023/11/09 06:08:35;;;;;;;3.97;1.40;;;;;;;24.17;35.52;100114.84;4198642;28;20119;-58
2023/11/09 06:10:37;;;;;;;5.20;1.35;;;;;;;24.16;35.28;100111.34;4198803;28;20067;-58
2023/11/09 06:12:40;;;;;;;5.85;1.60;;;;;;;24.14;35.56;100116.00;4198640;28;20049;-58
2023/11/09 06:14:42;;;;;;;6.25;1.40;;;;;;;24.12;35.84;100119.88;4198561;28;20131;-58
2023/11/09 06:16:44;;;;;;;4.97;1.23;;;;;;;24.11;35.73;100119.03;4198918;28;20475;-57
2023/11/09 06:18:46;;;;;;;;;;;;;;;24.09;35.67;100116.47;4199166;28;20172;-59
2023/11/09 06:20:49;;;;;;;5.38;1.33;;;;;;;24.09;35.79;100121.84;4198530;28;19924;-58
2023/11/09 06:22:53;;;;;;;4.40;1.23;;;;;;;24.12;36.09;100127.91;4198762;28;20048;-58
2023/11/09 06:24:54;;;;;;;5.22;1.30;;;;;;;24.14;36.24;100125.94;4198565;28;20044;-58
2023/11/09 06:26:57;;;;;;;4.70;1.35;;;;;;;24.11;35.62;100127.09;4198242;28;20055;-57
2023/11/09 06:28:59;;;;;;;5.20;1.50;;;;;;;24.18;35.65;100140.72;4198517;28;20071;-58
2023/11/09 06:31:04;;;;;;;;;;;;;;;24.16;35.65;100132.81;4198764;28;20047;-58
2023/11/09 06:33:05;;;;;;;4.75;1.40;;;;;;;24.14;35.59;100136.69;4198457;28;19958;-58
2023/11/09 06:35:13;;;;;;;5.90;1.52;;;;;;;24.14;35.69;100144.72;4198592;28;20048;-57
2023/11/09 06:37:15;;;;;;;5.10;1.38;;;;;;;24.12;35.90;100155.66;4198600;28;20091;-58
2023/11/09 06:39:17;;;;;;;;;;;;;;;24.12;35.67;100155.66;4198558;28;20055;-58
2023/11/09 06:41:18;;;;;;;5.95;1.50;;;;;;;24.09;35.54;100154.09;4198073;28;19921;-58
2023/11/09 06:43:20;;;;;;;;;;;;;;;24.13;35.74;100159.16;4198859;28;20454;-58
2023/11/09 06:45:23;;;;;;;6.32;1.50;;;;;;;24.14;35.31;100163.53;4198275;28;19920;-58
2023/11/09 06:47:24;;;;;;;6.25;1.80;;;;;;;24.16;35.59;100156.19;4198214;28;20495;-58
2023/11/09 06:49:26;;;;;;;;;;;;;;;24.17;35.38;100161.38;4198107;28;20048;-58
2023/11/09 06:51:28;;;;;;;5.65;1.52;;;;;;;24.16;35.40;100169.59;4198456;28;20019;-59
2023/11/09 06:53:30;;;;;;;;;;;;;;;24.17;35.28;100163.22;4197246;28;20040;-58
2023/11/09 06:55:32;;;;;;;5.18;1.60;;;;;;;24.14;36.11;100169.75;4197963;28;19927;-58
2023/11/09 06:57:34;;;;;;;5.43;1.40;;;;;;;24.15;35.61;100173.28;4198142;28;20045;-58
2023/11/09 06:59:36;;;;;;;7.25;1.85;;;;;;;24.08;35.51;100165.00;4198010;28;20052;-58
2023/11/09 07:01:38;;;;;;;5.57;1.77;;;;;;;24.13;35.43;100172.59;4198188;28;20048;-58
2023/11/09 07:03:40;;;;;;;5.28;1.52;;;;;;;24.12;35.36;100174.44;4197933;28;20054;-59
2023/11/09 07:05:41;;;;;;;5.72;1.48;;;;;;;24.13;35.63;100183.34;4197855;28;20568;-59
2023/11/09 07:07:43;;;;;;;5.07;1.48;;;;;;;24.13;35.47;100183.34;4197792;28;20052;-58
2023/11/09 07:09:45;;;;;;;;;;;;;;;24.14;35.37;100185.03;4198504;28;20049;-58
2023/11/09 07:11:48;;;;;;;6.28;1.75;;;;;;;24.12;35.55;100187.88;4197440;28;19977;-58
2023/11/09 07:13:50;;;;;;;6.47;1.70;;;;;;;24.15;35.66;100190.25;4197848;28;20174;-58
2023/11/09 07:15:52;;;;;;;4.82;1.30;;;;;;;24.14;35.47;100191.25;4197895;28;20052;-58
2023/11/09 07:17:54;;;;;;;6.05;1.67;;;;;;;24.15;35.66;100192.09;4197799;28;20044;-58
2023/11/09 07:19:57;;;;;;;;;;;;;;;24.12;35.27;100185.19;4198064;28;20088;-58
2023/11/09 07:22:00;;;;;;;6.68;1.60;;;;;;;24.09;35.52;100197.06;4197840;28;20283;-57
2023/11/09 07:24:04;;;;;;;4.60;1.38;;;;;;;24.02;35.40;100177.22;4197496;28;20094;-58
2023/11/09 07:26:06;;;;;;;5.32;1.95;;;;;;;24.08;35.45;100199.94;4197422;28;20049;-57
2023/11/09 07:28:08;;;;;;;4.95;1.60;;;;;;;24.13;35.27;100211.03;4197358;28;20094;-57
2023/11/09 07:30:10;;;;;;;5.05;1.30;;;;;;;24.15;35.38;100203.69;4197398;28;20044;-57
2023/11/09 07:32:12;;;;;;;;;;;;;;;24.17;35.23;100208.88;4197987;28;20047;-58
2023/11/09 07:34:14;;;;;;;6.15;1.55;;;;;;;24.16;35.44;100199.16;4196074;28;19920;-58
2023/11/09 07:36:16;;;;;;;;;;;;;;;24.16;35.50;100202.69;4197976;28;20055;-58
2023/11/09 07:38:19;;;;;;;5.13;1.40;;;;;;;24.14;35.17;100209.22;4197259;28;19927;-58
2023/11/09 07:40:20;;;;;;;5.75;1.40;;;;;;;24.15;35.16;100206.38;4197233;28;20094;-58
2023/11/09 07:42:22;;;;;;;;;;;;;;;24.14;35.54;100215.41;4197681;28;20522;-57
2023/11/09 07:44:25;;;;;;;4.50;1.40;;;;;;;24.11;35.33;100213.06;4197295;28;20018;-57
2023/11/09 07:46:27;;;;;;;5.85;1.48;;;;;;;24.12;35.50;100217.44;4197232;28;20056;-57
2023/11/09 07:48:29;;;;;;;5.40;1.33;;;;;;;24.14;35.66;100214.59;4197230;28;20071;-58
2023/11/09 07:50:33;;;;;;;5.97;1.73;;;;;;;24.14;35.31;100211.91;4197020;28;20074;-57
2023/11/09 07:52:35;;;;;;;5.78;1.52;;;;;;;24.17;35.64;100215.13;4197329;28;20513;-58
2023/11/09 07:54:37;;;;;;;5.45;1.30;;;;;;;24.18;35.12;100211.44;4197035;28;20048;-58
2023/11/09 07:56:39;;;;;;;4.40;1.30;;;;;;;24.20;35.29;100198.66;4197207;28;20064;-57
2023/11/09 07:58:41;;;;;;;5.45;1.50;;;;;;;24.19;35.09;100197.00;4197233;28;20135;-58
2023/11/09 08:00:43;;;;;;;4.97;1.30;;;;;;;24.20;35.13;100217.47;4196677;28;20045;-57
2023/11/09 08:02:44;;;;;;;5.80;1.40;;;;;;;24.20;35.15;100228.22;4195585;28;20103;-58
2023/11/09 08:04:46;;;;;;;;;;;;;;;24.19;35.31;100220.34;4197349;28;20048;-59
2023/11/09 08:06:48;;;;;;;5.35;1.30;;;;;;;24.16;35.11;100223.34;4197179;28;20318;-58
2023/11/09 08:08:51;;;;;;;7.65;1.75;;;;;;;24.17;35.01;100219.63;4196444;28;20049;-58
2023/11/09 08:10:53;;;;;;;4.93;1.42;;;;;;;24.18;35.24;100227.56;4196826;28;20049;-58
2023/11/09 08:12:55;;;;;;;5.25;1.60;;;;;;;24.20;35.54;100219.34;4196929;28;20071;-58
2023/11/09 08:14:57;;;;;;;4.72;1.50;;;;;;;24.20;35.24;100213.97;4196765;28;20155;-58
2023/11/09 08:17:00;;;;;;;5.00;1.70;;;;;;;24.24;34.94;100220.69;4196777;28;20463;-59
2023/11/09 08:19:03;;;;;;;6.00;1.50;;;;;;;24.25;34.98;100208.94;4196786;28;20051;-58
2023/11/09 08:21:05;;;;;;;4.43;1.42;;;;;;;24.24;34.83;100205.44;4197106;28;20056;-58
2023/11/09 08:23:08;;;;;;;5.15;1.23;;;;;;;24.22;34.90;100212.81;4196449;28;20124;-59
2023/11/09 08:25:14;;;;;;;6.72;1.75;;;;;;;24.23;35.02;100219.88;4196811;28;20052;-58
2023/11/09 08:27:16;;;;;;;5.80;1.50;;;;;;;24.21;34.96;100212.97;4196694;28;20101;-59
2023/11/09 08:29:18;;;;;;;3.55;1.25;;;;;;;24.18;34.88;100215.94;4196652;28;20082;-59
2023/11/09 08:31:21;;;;;;;5.18;1.33;;;;;;;24.20;35.26;100219.34;4196792;28;20053;-59
2023/11/09 08:33:24;;;;;;;6.15;1.60;;;;;;;24.20;35.14;100216.66;4196778;28;20052;-59
2023/11/09 08:35:26;;;;;;;4.72;1.30;;;;;;;24.24;35.25;100228.75;4196760;28;20418;-59
2023/11/09 08:37:27;;;;;;;;;;;;;;;24.23;35.14;100225.25;4196922;28;20128;-59
2023/11/09 08:39:30;;;;;;;5.90;1.67;;;;;;;24.24;34.80;100220.69;4196650;28;19920;-59
2023/11/09 08:41:32;;;;;;;6.07;1.58;;;;;;;24.24;35.15;100218.88;4196659;28;20119;-59
2023/11/09 08:43:33;;;;;;;5.95;1.38;;;;;;;24.25;34.72;100217.03;4196615;28;20099;-59
2023/11/09 08:45:36;;;;;;;;;;;;;;;24.24;34.83;100210.81;4196935;28;20048;-58
2023/11/09 08:47:38;;;;;;;5.28;1.50;;;;;;;24.22;35.28;100210.13;4196724;28;19932;-58
2023/11/09 08:49:39;;;;;;;;;;;;;;;24.21;35.16;100216.47;4197161;28;20056;-59
2023/11/09 08:51:43;;;;;;;5.07;1.48;;;;;;;24.18;34.98;100208.75;4196272;28;19927;-59
2023/11/09 08:53:46;;;;;;;6.32;1.65;;;;;;;24.19;35.17;100210.44;4196739;28;20072;-58
2023/11/09 08:55:54;;;;;;;5.50;1.48;;;;;;;24.23;34.82;100209.13;4196512;28;20368;-59
2023/11/09 08:57:58;;;;;;;7.05;1.90;;;;;;;24.25;34.80;100208.94;4196501;28;20046;-59
2023/11/09 09:00:05;;;;;;;5.10;1.40;;;;;;;24.28;35.16;100203.28;4196389;28;20049;-59
2023/11/09 09:02:09;;;;;;;5.78;1.40;;;;;;;24.30;34.69;100211.19;4196362;28;20102;-59
2023/11/09 09:04:11;;;;;;;5.68;1.50;;;;;;;24.26;34.71;100220.56;4195537;28;20052;-59
2023/11/09 09:06:15;;;;;;;5.30;1.55;;;;;;;24.27;35.30;100216.88;4196181;28;20507;-59
2023/11/09 09:08:18;;;;;;;5.32;1.45;;;;;;;24.22;34.72;100204.75;4196364;28;20082;-58
2023/11/09 09:10:21;;;;;;;6.80;1.90;;;;;;;24.23;35.00;100205.59;4196411;28;20419;-58
2023/11/09 09:12:23;;;;;;;4.88;1.27;;;;;;;24.19;35.12;100182.72;4197145;28;20055;-59
2023/11/09 09:14:24;;;;;;;5.25;1.45;;;;;;;24.21;34.47;100192.31;4199788;28;20388;-59
2023/11/09 09:16:28;;;;;;;5.47;1.30;;;;;;;24.22;34.97;100198.53;4199735;28;20056;-59
2023/11/09 09:18:30;;;;;;;5.35;1.42;;;;;;;24.24;35.02;100193.81;4199718;28;20426;-58
2023/11/09 09:20:32;;;;;;;4.68;1.50;;;;;;;24.25;34.95;100190.16;4199389;28;20385;-58
2023/11/09 09:22:34;;;;;;;;;;;;;;;24.25;34.78;100184.78;4200217;28;20049;-59
2023/11/09 09:24:41;;;;;;;5.80;1.60;;;;;;;24.22;34.78;100180.56;4199562;28;20003;-59
2023/11/09 09:26:43;;;;;;;5.45;1.60;;;;;;;24.25;35.07;100182.09;4199362;28;20051;-59
2023/11/09 09:28:47;;;;;;;;;;;;;;;24.26;34.88;100182.94;4199840;28;20045;-59
2023/11/09 09:30:51;;;;;;;4.25;1.30;;;;;;;24.24;34.74;100183.94;4199200;28;19954;-59
2023/11/09 09:32:53;;;;;;;;;;;;;;;24.27;34.60;100182.78;4199892;28;20040;-59
2023/11/09 09:34:55;;;;;;;5.47;1.40;;;;;;;24.27;34.60;100181.94;4199295;28;19974;-59
2023/11/09 09:36:59;;;;;;;5.72;1.85;;;;;;;24.28;34.83;100187.16;4199288;28;20049;-59
2023/11/09 09:39:01;;;;;;;7.15;1.75;;;;;;;24.27;34.99;100185.47;4199312;28;20044;-58
2023/11/09 09:41:06;;;;;;;;;;;;;;;24.27;34.53;100180.09;4199800;28;20097;-59
2023/11/09 09:43:08;;;;;;;6.47;2.00;;;;;;;24.25;34.45;100176.72;4199242;28;20024;-58
2023/11/09 09:45:14;;;;;;;5.45;1.60;;;;;;;24.28;34.46;100172.84;4199396;28;20048;-58
2023/11/09 09:47:15;;;;;;;5.78;1.65;;;;;;;24.29;34.69;100167.34;4199375;28;20521;-58
2023/11/09 09:49:18;;;;;;;6.00;1.75;;;;;;;24.32;34.40;100164.34;4199115;28;20497;-58